Armiesburg, Indiana
Current Conditions -  °F | °C
As of 5:15 PM on Thursday 23 Oct 2014 (Local Time) from KPRG Reporting Station
Clear Clear  
Wind Chill: 60°   Ceiling: Unl
Heat Index: 60°   Visibility: 10mi
Dew Point: 43°   Wind: 3mph
Humidity: 54%   Direction: 200°SSW
Pressure: 30.15"   Gusts: NA
Location:  39.8207°N, 87.3335°W
Report Text: KPRG 232115Z AUTO 20003KT 10SM CLR 15/06 A3015 RMK AO2 T01530059
Loading
Personal Weather Stations






























Interactive Weather Map
Tropical Storm Tracking
New forecast layout! Learn more

10-Day Weather Forecast

Advertisements
Track Severe Weather on mobile